Time,TemperatureF,DewpointF,PressureIn,WindDirection,WindDirectionDegrees,WindSpeedMPH,WindSpeedGustMPH,Humidity,HourlyPrecipIn,Conditions,Clouds,dailyrainin,SoftwareType,DateUTC
2013-04-11 00:00:00,60.3,40.5,29.71,WSW,248,0.0,0.0,48,0.00,CLR,,0.00,WeatherDisplay:10.37,2013-04-10 21:00:00,
2013-04-11 00:02:00,60.3,40.5,29.71,WNW,292,3.5,3.5,48,0.00,CLR,,0.00,WeatherDisplay:10.37,2013-04-10 21:02:00,
2013-04-11 00:03:00,60.1,40.3,29.71,WNW,292,1.4,1.4,48,0.00,CLR,,0.00,WeatherDisplay:10.37,2013-04-10 21:03:00,
2013-04-11 00:04:00,60.1,40.3,29.71,West,270,1.6,1.6,48,0.00,CLR,,0.00,WeatherDisplay:10.37,2013-04-10 21:04:00,
2013-04-11 00:05:00,60.1,40.3,29.71,NW,315,2.3,2.3,48,0.00,CLR,,0.00,WeatherDisplay:10.37,2013-04-10 21:05:00,
2013-04-11 00:08:00,60.1,40.3,29.71,NNW,338,5.9,5.9,48,0.00,CLR,,0.00,WeatherDisplay:10.37,2013-04-10 21:08:00,
2013-04-11 00:09:00,60.1,40.3,29.71,NW,315,5.8,5.9,48,0.00,CLR,,0.00,WeatherDisplay:10.37,2013-04-10 21:09:00,
2013-04-11 00:10:00,60.1,40.3,29.71,WNW,292,3.5,3.5,48,0.00,CLR,,0.00,WeatherDisplay:10.37,2013-04-10 21:10:00,
2013-04-11 00:13:00,60.1,40.3,29.71,WNW,292,3.5,3.5,48,0.00,CLR,,0.00,WeatherDisplay:10.37,2013-04-10 21:13:00,
2013-04-11 00:14:00,60.1,40.8,29.71,West,270,3.5,3.5,49,0.00,CLR,,0.00,WeatherDisplay:10.37,2013-04-10 21:14:00,
2013-04-11 00:16:00,59.9,40.1,29.71,NW,315,1.2,1.2,48,0.00,CLR,,0.00,WeatherDisplay:10.37,2013-04-10 21:16:00,
2013-04-11 00:18:00,59.9,40.7,29.71,WNW,292,3.1,3.1,49,0.00,CLR,,0.00,WeatherDisplay:10.37,2013-04-10 21:18:00,
2013-04-11 00:20:00,59.9,40.7,29.71,WNW,292,3.5,3.5,49,0.00,CLR,,0.00,WeatherDisplay:10.37,2013-04-10 21:20:00,
2013-04-11 00:21:00,59.7,40.5,29.71,North,0,2.4,0.0,49,0.00,CLR,,0.00,WeatherDisplay:10.37,2013-04-10 21:21:00,
2013-04-11 00:23:00,59.7,40.5,29.71,North,0,2.4,2.4,49,0.00,CLR,,0.00,WeatherDisplay:10.37,2013-04-10 21:23:00,
2013-04-11 00:25:00,59.7,40.5,29.71,NNW,338,3.8,3.8,49,0.00,CLR,,0.00,WeatherDisplay:10.37,2013-04-10 21:25:00,
2013-04-11 00:26:00,59.7,40.5,29.71,NNW,338,5.8,5.8,49,0.00,CLR,,0.00,WeatherDisplay:10.37,2013-04-10 21:26:00,
2013-04-11 00:28:00,59.7,40.5,29.71,NNE,22,3.5,3.5,49,0.00,CLR,,0.00,WeatherDisplay:10.37,2013-04-10 21:28:00,
2013-04-11 00:30:00,59.7,40.5,29.71,NNE,22,2.3,2.3,49,0.00,CLR,,0.00,WeatherDisplay:10.37,2013-04-10 21:30:00,
2013-04-11 00:32:00,59.7,40.5,29.71,NNE,22,2.4,2.4,49,0.00,CLR,,0.00,WeatherDisplay:10.37,2013-04-10 21:32:00,
2013-04-11 00:33:00,59.7,40.0,29.71,NE,45,3.5,3.5,48,0.00,CLR,,0.00,WeatherDisplay:10.37,2013-04-10 21:33:00,
2013-04-11 00:35:00,59.5,39.8,29.71,NNE,22,2.9,2.9,48,0.00,CLR,,0.00,WeatherDisplay:10.37,2013-04-10 21:35:00,
2013-04-11 00:37:00,59.5,39.8,29.71,NNW,338,3.5,3.5,48,0.00,CLR,,0.00,WeatherDisplay:10.37,2013-04-10 21:37:00,
2013-04-11 00:38:00,59.5,39.8,29.71,ENE,68,4.6,4.6,48,0.00,CLR,,0.00,WeatherDisplay:10.37,2013-04-10 21:38:00,
2013-04-11 00:39:00,59.5,39.8,29.71,ENE,68,4.6,4.6,48,0.00,CLR,,0.00,WeatherDisplay:10.37,2013-04-10 21:39:00,
2013-04-11 00:40:00,59.5,39.8,29.71,WSW,248,2.4,2.4,48,0.00,CLR,,0.00,WeatherDisplay:10.37,2013-04-10 21:40:00,
2013-04-11 00:42:00,59.5,39.8,29.71,WNW,292,2.3,2.3,48,0.00,CLR,,0.00,WeatherDisplay:10.37,2013-04-10 21:42:00,
2013-04-11 00:43:00,59.5,39.8,29.71,West,270,2.4,2.4,48,0.00,CLR,,0.00,WeatherDisplay:10.37,2013-04-10 21:43:00,
2013-04-11 00:44:00,59.5,39.8,29.71,West,270,2.6,2.6,48,0.00,CLR,,0.00,WeatherDisplay:10.37,2013-04-10 21:44:00,
2013-04-11 00:46:00,59.4,39.7,29.71,WNW,292,0.0,0.0,48,0.00,CLR,,0.00,WeatherDisplay:10.37,2013-04-10 21:46:00,
2013-04-11 00:47:00,59.4,39.7,29.71,NNW,338,2.9,2.9,48,0.00,CLR,,0.00,WeatherDisplay:10.37,2013-04-10 21:47:00,
2013-04-11 00:48:00,59.4,39.7,29.71,NW,315,2.4,2.4,48,0.00,CLR,,0.00,WeatherDisplay:10.37,2013-04-10 21:48:00,
2013-04-11 00:49:00,59.2,39.5,29.71,NNW,338,3.5,3.5,48,0.00,CLR,,0.00,WeatherDisplay:10.37,2013-04-10 21:49:00,
2013-04-11 00:52:00,59.2,39.5,29.71,NNW,338,2.4,2.4,48,0.00,CLR,,0.00,WeatherDisplay:10.37,2013-04-10 21:52:00,
2013-04-11 00:53:00,59.2,39.5,29.71,NNW,338,2.3,0.0,48,0.00,CLR,,0.00,WeatherDisplay:10.37,2013-04-10 21:53:00,
2013-04-11 00:54:00,59.2,39.5,29.71,NNW,338,2.9,0.0,48,0.00,CLR,,0.00,WeatherDisplay:10.37,2013-04-10 21:54:00,
2013-04-11 00:57:00,59.2,39.5,29.71,NNW,338,3.5,3.5,48,0.00,CLR,,0.00,WeatherDisplay:10.37,2013-04-10 21:57:00,
2013-04-11 00:58:00,59.2,39.5,29.71,NNW,338,3.5,3.5,48,0.00,CLR,,0.00,WeatherDisplay:10.37,2013-04-10 21:58:00,
2013-04-11 00:59:00,59.2,39.5,29.71,North,0,3.5,3.5,48,0.00,CLR,,0.00,WeatherDisplay:10.37,2013-04-10 21:59:00,
2013-04-11 01:02:00,59.4,40.2,29.71,North,0,3.5,3.5,49,0.00,CLR,,0.00,WeatherDisplay:10.37,2013-04-10 22:02:00,
2013-04-11 01:03:00,59.4,40.2,29.71,NNW,338,2.4,2.4,49,0.00,CLR,,0.00,WeatherDisplay:10.37,2013-04-10 22:03:00,
2013-04-11 01:04:00,59.4,40.2,29.71,NW,315,2.3,2.3,49,0.00,CLR,,0.00,WeatherDisplay:10.37,2013-04-10 22:04:00,
2013-04-11 01:07:00,59.2,40.0,29.71,NNW,338,3.5,3.5,49,0.00,CLR,,0.00,WeatherDisplay:10.37,2013-04-10 22:07:00,
2013-04-11 01:08:00,59.4,40.2,29.71,North,0,3.5,3.5,49,0.00,CLR,,0.00,WeatherDisplay:10.37,2013-04-10 22:08:00,
2013-04-11 01:09:00,59.4,40.2,29.71,NNW,338,4.3,4.3,49,0.00,CLR,,0.00,WeatherDisplay:10.37,2013-04-10 22:09:00,
2013-04-11 01:12:00,59.4,40.7,29.71,NNW,338,3.5,3.5,50,0.00,CLR,,0.00,WeatherDisplay:10.37,2013-04-10 22:12:00,
2013-04-11 01:13:00,59.4,40.7,29.71,NNW,338,2.3,2.3,50,0.00,CLR,,0.00,WeatherDisplay:10.37,2013-04-10 22:13:00,
2013-04-11 01:14:00,59.2,40.5,29.71,WNW,292,2.0,0.0,50,0.00,CLR,,0.00,WeatherDisplay:10.37,2013-04-10 22:14:00,
2013-04-11 01:15:00,59.2,40.5,29.71,WNW,292,2.3,2.3,50,0.00,CLR,,0.00,WeatherDisplay:10.37,2013-04-10 22:15:00,
2013-04-11 01:17:00,59.2,41.1,29.71,West,270,3.5,3.5,51,0.00,CLR,,0.00,WeatherDisplay:10.37,2013-04-10 22:17:00,
2013-04-11 01:18:00,59.2,41.1,29.71,West,270,2.4,2.4,51,0.00,CLR,,0.00,WeatherDisplay:10.37,2013-04-10 22:18:00,
2013-04-11 01:19:00,59.2,41.6,29.71,WNW,292,2.3,2.3,52,0.00,CLR,,0.00,WeatherDisplay:10.37,2013-04-10 22:19:00,
2013-04-11 01:20:00,59.2,41.6,29.71,SW,225,3.1,3.1,52,0.00,CLR,,0.00,WeatherDisplay:10.37,2013-04-10 22:20:00,
2013-04-11 01:23:00,59.2,42.5,29.71,WNW,292,5.8,5.8,54,0.00,CLR,,0.00,WeatherDisplay:10.37,2013-04-10 22:23:00,
2013-04-11 01:24:00,59.2,42.5,29.71,WNW,292,4.6,4.6,54,0.00,CLR,,0.00,WeatherDisplay:10.37,2013-04-10 22:24:00,
2013-04-11 01:25:00,59.2,42.5,29.71,WNW,292,3.5,3.5,54,0.00,CLR,,0.00,WeatherDisplay:10.37,2013-04-10 22:25:00,
2013-04-11 01:28:00,59.2,43.0,29.71,WNW,292,2.3,2.3,55,0.00,CLR,,0.00,WeatherDisplay:10.37,2013-04-10 22:28:00,
2013-04-11 01:29:00,59.0,42.4,29.71,WSW,248,2.2,0.0,54,0.00,CLR,,0.00,WeatherDisplay:10.37,2013-04-10 22:29:00,
2013-04-11 01:30:00,59.0,42.4,29.71,WNW,292,3.1,3.1,54,0.00,CLR,,0.00,WeatherDisplay:10.37,2013-04-10 22:30:00,
2013-04-11 01:33:00,59.2,43.9,29.71,WNW,292,5.8,5.8,57,0.00,CLR,,0.00,WeatherDisplay:10.37,2013-04-10 22:33:00,
2013-04-11 01:35:00,59.0,43.3,29.71,West,270,5.8,5.8,56,0.00,CLR,,0.00,WeatherDisplay:10.37,2013-04-10 22:35:00,
2013-04-11 01:38:00,59.0,43.8,29.71,WNW,292,4.6,4.6,57,0.00,CLR,,0.00,WeatherDisplay:10.37,2013-04-10 22:38:00,
2013-04-11 01:40:00,59.0,43.8,29.71,WNW,292,2.3,2.3,57,0.00,CLR,,0.00,WeatherDisplay:10.37,2013-04-10 22:40:00,
2013-04-11 01:42:00,58.8,43.6,29.71,WSW,248,3.5,3.5,57,0.00,CLR,,0.00,WeatherDisplay:10.37,2013-04-10 22:42:00,
2013-04-11 01:43:00,58.8,44.1,29.71,WNW,292,3.5,3.5,58,0.00,CLR,,0.00,WeatherDisplay:10.37,2013-04-10 22:43:00,
2013-04-11 01:44:00,58.8,44.1,29.71,WNW,292,3.5,3.5,58,0.00,CLR,,0.00,WeatherDisplay:10.37,2013-04-10 22:44:00,
2013-04-11 01:45:00,58.8,44.1,29.71,WNW,292,2.3,2.3,58,0.00,CLR,,0.00,WeatherDisplay:10.37,2013-04-10 22:45:00,
2013-04-11 01:48:00,58.6,43.9,29.71,NNW,338,2.9,2.9,58,0.00,CLR,,0.00,WeatherDisplay:10.37,2013-04-10 22:48:00,
2013-04-11 01:49:00,58.6,44.3,29.71,NNW,338,3.6,3.6,59,0.00,CLR,,0.00,WeatherDisplay:10.37,2013-04-10 22:49:00,
2013-04-11 01:50:00,58.6,44.3,29.71,NNW,338,3.5,3.5,59,0.00,CLR,,0.00,WeatherDisplay:10.37,2013-04-10 22:50:00,
2013-04-11 01:53:00,58.6,44.3,29.71,NNE,22,3.5,3.5,59,0.00,CLR,,0.00,WeatherDisplay:10.37,2013-04-10 22:53:00,
2013-04-11 01:54:00,58.6,44.3,29.71,North,0,3.1,3.1,59,0.00,CLR,,0.00,WeatherDisplay:10.37,2013-04-10 22:54:00,
2013-04-11 01:55:00,58.5,44.2,29.71,NNE,22,3.5,3.5,59,0.00,CLR,,0.00,WeatherDisplay:10.37,2013-04-10 22:55:00,
2013-04-11 01:58:00,58.5,44.2,29.71,NNW,338,3.1,3.1,59,0.00,CLR,,0.00,WeatherDisplay:10.37,2013-04-10 22:58:00,
2013-04-11 01:59:00,58.5,44.2,29.71,NNE,22,3.1,3.1,59,0.00,CLR,,0.00,WeatherDisplay:10.37,2013-04-10 22:59:00,
2013-04-11 02:00:00,58.5,44.2,29.71,North,0,3.5,3.5,59,0.00,CLR,,0.00,WeatherDisplay:10.37,2013-04-10 23:00:00,
2013-04-11 02:03:00,58.5,44.2,29.71,WNW,292,2.3,2.3,59,0.00,CLR,,0.00,WeatherDisplay:10.37,2013-04-10 23:03:00,
2013-04-11 02:04:00,58.5,44.2,29.71,NNW,338,2.3,2.3,59,0.00,CLR,,0.00,WeatherDisplay:10.37,2013-04-10 23:04:00,
2013-04-11 02:05:00,58.5,44.2,29.71,NNW,338,3.5,3.5,59,0.00,CLR,,0.00,WeatherDisplay:10.37,2013-04-10 23:05:00,
2013-04-11 02:09:00,58.5,44.2,29.71,NNE,22,4.6,4.7,59,0.00,CLR,,0.00,WeatherDisplay:10.37,2013-04-10 23:09:00,
2013-04-11 02:10:00,58.5,44.2,29.71,NNW,338,5.8,5.8,59,0.00,CLR,,0.00,WeatherDisplay:10.37,2013-04-10 23:10:00,
2013-04-11 02:14:00,58.5,43.7,29.71,NNE,22,3.5,3.5,58,0.00,CLR,,0.00,WeatherDisplay:10.37,2013-04-10 23:14:00,
2013-04-11 02:15:00,58.5,43.7,29.71,NW,315,4.6,4.6,58,0.00,CLR,,0.00,WeatherDisplay:10.37,2013-04-10 23:15:00,
2013-04-11 02:19:00,58.6,43.9,29.71,WNW,292,4.6,4.6,58,0.00,CLR,,0.00,WeatherDisplay:10.37,2013-04-10 23:19:00,
2013-04-11 02:20:00,58.6,43.9,29.71,NNE,22,4.6,4.6,58,0.00,CLR,,0.00,WeatherDisplay:10.37,2013-04-10 23:20:00,
2013-04-11 02:24:00,58.6,43.9,29.71,NNE,22,3.5,3.5,58,0.00,CLR,,0.00,WeatherDisplay:10.37,2013-04-10 23:24:00,
2013-04-11 02:25:00,58.6,43.9,29.71,NNE,22,3.5,3.5,58,0.00,CLR,,0.00,WeatherDisplay:10.37,2013-04-10 23:25:00,
2013-04-11 02:29:00,58.5,43.3,29.71,North,0,2.3,2.3,57,0.00,CLR,,0.00,WeatherDisplay:10.37,2013-04-10 23:29:00,
2013-04-11 02:30:00,58.5,43.3,29.71,NNE,22,3.5,3.5,57,0.00,CLR,,0.00,WeatherDisplay:10.37,2013-04-10 23:30:00,
2013-04-11 02:31:00,58.5,43.3,29.71,NE,45,2.3,2.3,57,0.00,CLR,,0.00,WeatherDisplay:10.37,2013-04-10 23:31:00,
2013-04-11 02:34:00,58.3,43.1,29.71,NE,45,3.5,3.5,57,0.00,CLR,,0.00,WeatherDisplay:10.37,2013-04-10 23:34:00,
2013-04-11 02:35:00,58.3,43.1,29.71,NNE,22,2.4,2.4,57,0.00,CLR,,0.00,WeatherDisplay:10.37,2013-04-10 23:35:00,
2013-04-11 02:36:00,58.3,43.1,29.71,NNE,22,3.5,3.5,57,0.00,CLR,,0.00,WeatherDisplay:10.37,2013-04-10 23:36:00,
2013-04-11 02:39:00,58.3,43.1,29.68,NE,45,3.5,3.5,57,0.00,CLR,,0.00,WeatherDisplay:10.37,2013-04-10 23:39:00,
2013-04-11 02:40:00,58.3,43.1,29.68,ENE,68,2.3,2.3,57,0.00,CLR,,0.00,WeatherDisplay:10.37,2013-04-10 23:40:00,
2013-04-11 02:42:00,58.1,42.9,29.68,ENE,68,2.3,3.1,57,0.00,CLR,,0.00,WeatherDisplay:10.37,2013-04-10 23:42:00,
2013-04-11 02:44:00,58.1,43.4,29.68,NNE,22,3.5,3.5,58,0.00,CLR,,0.00,WeatherDisplay:10.37,2013-04-10 23:44:00,
2013-04-11 02:45:00,58.1,43.4,29.68,North,0,3.5,3.5,58,0.00,CLR,,0.00,WeatherDisplay:10.37,2013-04-10 23:45:00,
2013-04-11 02:47:00,58.1,42.9,29.68,ENE,68,2.3,2.3,57,0.00,CLR,,0.00,WeatherDisplay:10.37,2013-04-10 23:47:00,
2013-04-11 02:50:00,57.9,42.8,29.68,East,90,1.2,1.2,57,0.00,CLR,,0.00,WeatherDisplay:10.37,2013-04-10 23:50:00,
2013-04-11 02:51:00,57.9,42.8,29.68,ESE,112,1.6,0.0,57,0.00,CLR,,0.00,WeatherDisplay:10.37,2013-04-10 23:51:00,
2013-04-11 02:52:00,57.9,42.8,29.68,ESE,112,2.3,2.3,57,0.00,CLR,,0.00,WeatherDisplay:10.37,2013-04-10 23:52:00,
2013-04-11 02:55:00,57.9,42.8,29.68,SE,135,0.0,0.9,57,0.00,CLR,,0.00,WeatherDisplay:10.37,2013-04-10 23:55:00,
2013-04-11 02:56:00,57.9,42.8,29.68,SE,135,1.2,0.0,57,0.00,CLR,,0.00,WeatherDisplay:10.37,2013-04-10 23:56:00,
2013-04-11 02:57:00,57.7,42.6,29.68,SE,135,0.0,0.0,57,0.00,CLR,,0.00,WeatherDisplay:10.37,2013-04-10 23:57:00,
2013-04-11 03:00:00,57.6,42.4,29.68,SE,135,0.0,0.0,57,0.00,CLR,,0.00,WeatherDisplay:10.37,2013-04-11 00:00:00,
2013-04-11 03:02:00,57.2,42.1,29.68,SE,135,0.0,0.0,57,0.00,CLR,,0.00,WeatherDisplay:10.37,2013-04-11 00:02:00,
2013-04-11 03:05:00,57.0,41.9,29.68,SE,135,1.2,1.2,57,0.00,CLR,,0.00,WeatherDisplay:10.37,2013-04-11 00:05:00,
2013-04-11 03:07:00,57.0,42.4,29.68,SE,135,2.2,2.2,58,0.00,CLR,,0.00,WeatherDisplay:10.37,2013-04-11 00:07:00,
2013-04-11 03:08:00,57.0,42.4,29.68,North,0,2.9,2.9,58,0.00,CLR,,0.00,WeatherDisplay:10.37,2013-04-11 00:08:00,
2013-04-11 03:10:00,57.0,42.4,29.68,NNE,22,2.6,2.6,58,0.00,CLR,,0.00,WeatherDisplay:10.37,2013-04-11 00:10:00,
2013-04-11 03:13:00,57.0,42.4,29.68,NNW,338,2.9,0.0,58,0.00,CLR,,0.00,WeatherDisplay:10.37,2013-04-11 00:13:00,
2013-04-11 03:15:00,57.0,42.8,29.68,North,0,3.5,3.5,59,0.00,CLR,,0.00,WeatherDisplay:10.37,2013-04-11 00:15:00,
2013-04-11 03:16:00,57.0,42.8,29.68,NNE,22,3.5,3.5,59,0.00,CLR,,0.00,WeatherDisplay:10.37,2013-04-11 00:16:00,
2013-04-11 03:18:00,56.8,42.7,29.68,NNE,22,2.9,2.9,59,0.00,CLR,,0.00,WeatherDisplay:10.37,2013-04-11 00:18:00,
2013-04-11 03:20:00,56.8,42.7,29.68,NNE,22,2.3,2.3,59,0.00,CLR,,0.00,WeatherDisplay:10.37,2013-04-11 00:20:00,
2013-04-11 03:21:00,56.8,42.7,29.68,NNE,22,2.3,2.3,59,0.00,CLR,,0.00,WeatherDisplay:10.37,2013-04-11 00:21:00,
2013-04-11 03:23:00,56.8,42.7,29.68,NNE,22,2.3,2.3,59,0.00,CLR,,0.00,WeatherDisplay:10.37,2013-04-11 00:23:00,
2013-04-11 03:24:00,56.8,42.7,29.68,NNE,22,2.3,2.3,59,0.00,CLR,,0.00,WeatherDisplay:10.37,2013-04-11 00:24:00,
2013-04-11 03:25:00,56.8,42.7,29.68,NNE,22,2.4,2.4,59,0.00,CLR,,0.00,WeatherDisplay:10.37,2013-04-11 00:25:00,
2013-04-11 22:19:00,61.7,50.2,29.80,South,180,3.5,3.5,66,0.00,CLR,,0.00,WeatherDisplay:10.37,2013-04-11 19:19:00,
2013-04-11 22:20:00,61.7,50.2,29.80,South,180,3.5,3.5,66,0.00,CLR,,0.00,WeatherDisplay:10.37,2013-04-11 19:20:00,
2013-04-11 22:24:00,61.5,49.6,29.80,SSE,158,2.3,2.3,65,0.00,CLR,,0.00,WeatherDisplay:10.37,2013-04-11 19:24:00,
2013-04-11 22:25:00,61.5,49.6,29.80,SSE,158,2.3,2.3,65,0.00,CLR,,0.00,WeatherDisplay:10.37,2013-04-11 19:25:00,
2013-04-11 22:30:00,61.3,50.3,29.80,SSE,158,5.8,5.8,67,0.00,CLR,,0.00,WeatherDisplay:10.37,2013-04-11 19:30:00,
2013-04-11 22:31:00,61.3,50.3,29.80,SSW,202,2.3,2.3,67,0.00,CLR,,0.00,WeatherDisplay:10.37,2013-04-11 19:31:00,
2013-04-11 22:35:00,61.3,49.9,29.80,SE,135,2.4,2.4,66,0.00,CLR,,0.00,WeatherDisplay:10.37,2013-04-11 19:35:00,
2013-04-11 22:36:00,61.3,49.9,29.80,SSE,158,2.6,2.6,66,0.00,CLR,,0.00,WeatherDisplay:10.37,2013-04-11 19:36:00,
2013-04-11 22:40:00,61.2,50.9,29.80,SSE,158,5.9,5.9,69,0.00,CLR,,0.00,WeatherDisplay:10.37,2013-04-11 19:40:00,
2013-04-11 22:41:00,61.2,50.9,29.80,SSE,158,4.6,4.6,69,0.00,CLR,,0.00,WeatherDisplay:10.37,2013-04-11 19:41:00,
2013-04-11 22:45:00,61.2,50.9,29.80,SSE,158,3.5,3.5,69,0.00,CLR,,0.00,WeatherDisplay:10.37,2013-04-11 19:45:00,
2013-04-11 22:46:00,61.2,50.5,29.80,SSE,158,1.6,0.0,68,0.00,CLR,,0.00,WeatherDisplay:10.37,2013-04-11 19:46:00,
2013-04-11 22:50:00,61.0,50.3,29.80,SSE,158,4.6,4.6,68,0.00,CLR,,0.00,WeatherDisplay:10.37,2013-04-11 19:50:00,
2013-04-11 22:52:00,61.0,50.3,29.80,ESE,112,4.6,4.6,68,0.00,CLR,,0.00,WeatherDisplay:10.37,2013-04-11 19:52:00,
2013-04-11 22:55:00,61.0,50.3,29.80,SSE,158,2.3,0.0,68,0.00,CLR,,0.00,WeatherDisplay:10.37,2013-04-11 19:55:00,
2013-04-11 22:57:00,60.8,49.8,29.80,SSE,158,0.0,0.0,67,0.00,CLR,,0.00,WeatherDisplay:10.37,2013-04-11 19:57:00,
2013-04-11 22:58:00,60.8,49.8,29.80,SSE,158,3.5,3.5,67,0.00,CLR,,0.00,WeatherDisplay:10.37,2013-04-11 19:58:00,
2013-04-11 23:00:00,60.8,49.8,29.80,SSE,158,0.0,0.0,67,0.00,CLR,,0.00,WeatherDisplay:10.37,2013-04-11 20:00:00,
2013-04-11 23:02:00,60.6,49.6,29.80,SE,135,1.2,1.2,67,0.00,CLR,,0.00,WeatherDisplay:10.37,2013-04-11 20:02:00,
2013-04-11 23:04:00,60.6,49.6,29.80,ESE,112,2.3,2.3,67,0.00,CLR,,0.00,WeatherDisplay:10.37,2013-04-11 20:04:00,
2013-04-11 23:05:00,60.4,49.0,29.80,ESE,112,2.3,2.3,66,0.00,CLR,,0.00,WeatherDisplay:10.37,2013-04-11 20:05:00,
2013-04-11 23:06:00,60.4,49.0,29.80,ENE,68,2.4,2.4,66,0.00,CLR,,0.00,WeatherDisplay:10.37,2013-04-11 20:06:00,
2013-04-11 23:07:00,60.3,48.9,29.80,ENE,68,2.3,2.3,66,0.00,CLR,,0.00,WeatherDisplay:10.37,2013-04-11 20:07:00,
2013-04-11 23:09:00,60.3,48.4,29.80,NE,45,3.5,3.5,65,0.00,CLR,,0.00,WeatherDisplay:10.37,2013-04-11 20:09:00,
2013-04-11 23:11:00,60.3,48.0,29.80,NE,45,2.3,2.4,64,0.00,CLR,,0.00,WeatherDisplay:10.37,2013-04-11 20:11:00,
2013-04-11 23:13:00,60.3,47.6,29.80,NE,45,2.3,2.3,63,0.00,CLR,,0.00,WeatherDisplay:10.37,2013-04-11 20:13:00,
2013-04-11 23:14:00,60.3,47.2,29.80,NE,45,2.3,2.3,62,0.00,CLR,,0.00,WeatherDisplay:10.37,2013-04-11 20:14:00,
2013-04-11 23:16:00,60.1,46.1,29.80,ENE,68,3.5,3.5,60,0.00,CLR,,0.00,WeatherDisplay:10.37,2013-04-11 20:16:00,
2013-04-11 23:17:00,60.3,46.3,29.80,ENE,68,2.3,2.3,60,0.00,CLR,,0.00,WeatherDisplay:10.37,2013-04-11 20:17:00,
2013-04-11 23:18:00,60.3,46.3,29.80,ENE,68,2.3,2.3,60,0.00,CLR,,0.00,WeatherDisplay:10.37,2013-04-11 20:18:00,
2013-04-11 23:19:00,60.3,46.3,29.80,ENE,68,3.5,3.5,60,0.00,CLR,,0.00,WeatherDisplay:10.37,2013-04-11 20:19:00,
2013-04-11 23:21:00,60.3,45.9,29.80,ENE,68,2.4,2.4,59,0.00,CLR,,0.00,WeatherDisplay:10.37,2013-04-11 20:21:00,
2013-04-11 23:22:00,60.3,45.9,29.80,ENE,68,2.3,2.3,59,0.00,CLR,,0.00,WeatherDisplay:10.37,2013-04-11 20:22:00,
2013-04-11 23:24:00,60.3,45.4,29.80,ENE,68,2.3,2.3,58,0.00,CLR,,0.00,WeatherDisplay:10.37,2013-04-11 20:24:00,
2013-04-11 23:26:00,60.1,45.2,29.80,ENE,68,2.3,0.0,58,0.00,CLR,,0.00,WeatherDisplay:10.37,2013-04-11 20:26:00,
2013-04-11 23:27:00,60.1,45.2,29.80,ENE,68,2.0,2.0,58,0.00,CLR,,0.00,WeatherDisplay:10.37,2013-04-11 20:27:00,
2013-04-11 23:29:00,60.1,45.2,29.80,ENE,68,3.5,3.5,58,0.00,CLR,,0.00,WeatherDisplay:10.37,2013-04-11 20:29:00,
2013-04-11 23:30:00,60.1,45.2,29.80,NE,45,3.5,3.5,58,0.00,CLR,,0.00,WeatherDisplay:10.37,2013-04-11 20:30:00,
2013-04-11 23:32:00,60.1,44.8,29.80,NE,45,2.4,2.4,57,0.00,CLR,,0.00,WeatherDisplay:10.37,2013-04-11 20:32:00,
2013-04-11 23:33:00,60.1,44.8,29.80,NE,45,3.1,3.1,57,0.00,CLR,,0.00,WeatherDisplay:10.37,2013-04-11 20:33:00,
2013-04-11 23:34:00,60.1,44.8,29.80,NE,45,3.5,3.5,57,0.00,CLR,,0.00,WeatherDisplay:10.37,2013-04-11 20:34:00,
2013-04-11 23:35:00,60.1,44.8,29.80,NE,45,3.5,3.5,57,0.00,CLR,,0.00,WeatherDisplay:10.37,2013-04-11 20:35:00,
2013-04-11 23:38:00,59.9,44.6,29.80,ENE,68,2.3,2.3,57,0.00,CLR,,0.00,WeatherDisplay:10.37,2013-04-11 20:38:00,
2013-04-11 23:39:00,59.9,44.6,29.80,ENE,68,2.3,2.3,57,0.00,CLR,,0.00,WeatherDisplay:10.37,2013-04-11 20:39:00,
2013-04-11 23:40:00,59.9,44.6,29.80,ENE,68,0.0,0.0,57,0.00,CLR,,0.00,WeatherDisplay:10.37,2013-04-11 20:40:00,
2013-04-11 23:43:00,59.9,44.6,29.80,ENE,68,2.4,2.4,57,0.00,CLR,,0.00,WeatherDisplay:10.37,2013-04-11 20:43:00,
2013-04-11 23:44:00,59.7,44.5,29.80,ENE,68,2.6,2.6,57,0.00,CLR,,0.00,WeatherDisplay:10.37,2013-04-11 20:44:00,
2013-04-11 23:45:00,59.7,44.5,29.80,ENE,68,2.3,2.3,57,0.00,CLR,,0.00,WeatherDisplay:10.37,2013-04-11 20:45:00,
2013-04-11 23:48:00,59.7,44.5,29.80,ENE,68,2.3,2.3,57,0.00,CLR,,0.00,WeatherDisplay:10.37,2013-04-11 20:48:00,
2013-04-11 23:49:00,59.7,44.5,29.80,ENE,68,2.3,2.3,57,0.00,CLR,,0.00,WeatherDisplay:10.37,2013-04-11 20:49:00,
2013-04-11 23:50:00,59.7,44.5,29.80,ENE,68,2.3,2.3,57,0.00,CLR,,0.00,WeatherDisplay:10.37,2013-04-11 20:50:00,
2013-04-11 23:53:00,59.7,44.5,29.80,NE,45,3.5,3.5,57,0.00,CLR,,0.00,WeatherDisplay:10.37,2013-04-11 20:53:00,
2013-04-11 23:54:00,59.7,44.5,29.80,NE,45,3.5,3.5,57,0.00,CLR,,0.00,WeatherDisplay:10.37,2013-04-11 20:54:00,
2013-04-11 23:55:00,59.7,44.5,29.80,NE,45,2.6,2.6,57,0.00,CLR,,0.00,WeatherDisplay:10.37,2013-04-11 20:55:00,
2013-04-11 23:58:00,59.7,44.0,29.80,NE,45,2.3,2.3,56,0.00,CLR,,0.00,WeatherDisplay:10.37,2013-04-11 20:58:00,
2013-04-11 23:59:00,59.7,44.0,29.80,NE,45,2.3,2.3,56,0.00,CLR,,0.00,WeatherDisplay:10.37,2013-04-11 20:59:00,